Terminal Aerodrome Forecast
Issued by NWS Mt. Holly, NJ

Home | Current Version | Previous Version | Text Only | Print | Product List | Glossary On
Versions: 1 2 3 4 5 6 7 8 9 10 11 12 13 14 15 16 17 18 19 20 21 22 23
000
FTUS41 KPHI 211400 AAA
TAFPHL
TAF AMD
KPHL 211442Z 2115/2218 30015G25KT P6SM SKC
     FM211900 30011G20KT P6SM SKC
     FM212200 29010KT P6SM SKC
     FM220100 VRB03KT P6SM SKC
     FM221600 22009KT P6SM SCT250=

USA.gov is the U.S. government's official web portal to all federal, state and local government web resources and services.